This is the latest recevied weather packets stored in our database for station/object KG5CK-1. If no packets are shown the sender has not sent any weather packets the latest 1 day(s).
| Time | Temp. | Humidity | Pressure | Rain* | Wind** | Luminosity | Snow |
|---|---|---|---|---|---|---|---|
| 1778052723 | 15° C | 81% | 1005.8 hPa | 0 mm | 0.45 m/s, 41° | - | - |
| 1778052603 | 15° C | 81% | 1005.6 hPa | 0 mm | 0.89 m/s, 41° | - | - |
| 1778052543 | 15° C | 81% | 1005.6 hPa | 0 mm | 0.89 m/s, 41° | - | - |
| 1778052423 | 15° C | 81% | 1005.6 hPa | 0 mm | 0.89 m/s, 41° | - | - |
| 1778052303 | 15° C | 81% | 1005.8 hPa | 0 mm | 1.34 m/s, 36° | - | - |
| 1778052243 | 15° C | 81% | 1005.8 hPa | 0 mm | 1.34 m/s, 36° | - | - |
| 1778052123 | 15° C | 81% | 1005.8 hPa | 0 mm | 1.34 m/s, 36° | - | - |
| 1778052063 | 15° C | 81% | 1005.8 hPa | 0 mm | 1.34 m/s, 36° | - | - |
| 1778052003 | 15° C | 81% | 1005.7 hPa | 0 mm | 0.89 m/s, 28° | - | - |
| 1778051943 | 15° C | 81% | 1005.7 hPa | 0 mm | 0.89 m/s, 28° | - | - |
| 1778051883 | 15° C | 81% | 1005.7 hPa | 0 mm | 0.89 m/s, 28° | - | - |
| 1778051763 | 15° C | 81% | 1005.7 hPa | 0 mm | 0.89 m/s, 28° | - | - |
| 1778051643 | 15° C | 81% | 1005.9 hPa | 0 mm | 1.79 m/s, 8° | - | - |
| 1778051523 | 15° C | 81% | 1005.9 hPa | 0 mm | 1.79 m/s, 8° | - | - |
| 1778051343 | 15° C | 81% | 1005.8 hPa | 0 mm | 0.89 m/s, 29° | - | - |
| 1778051283 | 15° C | 81% | 1005.8 hPa | 0 mm | 0.89 m/s, 29° | - | - |
| 1778051223 | 15° C | 81% | 1005.8 hPa | 0 mm | 0.89 m/s, 29° | - | - |
| 1778051103 | 15° C | 81% | 1005.7 hPa | 0 mm | 2.24 m/s, 7° | - | - |
| 1778051043 | 15° C | 81% | 1005.7 hPa | 0 mm | 2.24 m/s, 7° | - | - |
| 1778050924 | 15° C | 81% | 1005.7 hPa | 0 mm | 2.24 m/s, 7° | - | - |
| 1778050683 | 15° C | 81% | 1005.9 hPa | 0 mm | 1.34 m/s, 52° | - | - |
| 1778050623 | 15° C | 81% | 1005.9 hPa | 0 mm | 1.34 m/s, 52° | - | - |
| 1778050503 | 15.56° C | 81% | 1005.7 hPa | 0 mm | 0.45 m/s, 38° | - | - |
| 1778050443 | 15.56° C | 81% | 1005.7 hPa | 0 mm | 0.45 m/s, 38° | - | - |
| 1778050383 | 15.56° C | 81% | 1005.7 hPa | 0 mm | 0.45 m/s, 38° | - | - |
* Rain latest hour (hover to see other rain measurements)
** Current wind speed in m/s (hover to see current wind gust speed)